createdAt,value
2022-07-27T00:01:02.361Z,55.20
2022-07-27T00:03:31.778Z,54.10
2022-07-27T00:05:59.550Z,56.30
2022-07-27T00:08:27.387Z,54.80
2022-07-27T00:10:55.386Z,55.70
2022-07-27T00:13:23.242Z,54.50
2022-07-27T00:15:51.485Z,55.80
2022-07-27T00:18:19.354Z,54.70
2022-07-27T00:20:48.875Z,55.40
2022-07-27T00:23:16.782Z,56.20
2022-07-27T00:25:44.600Z,56.80
2022-07-27T00:28:12.393Z,57.80
2022-07-27T00:30:40.274Z,56.90
2022-07-27T00:33:08.405Z,56.60
2022-07-27T00:35:36.270Z,58.20
2022-07-27T00:38:06.897Z,56.50
2022-07-27T00:40:34.783Z,57.10
2022-07-27T00:43:02.648Z,57.00
2022-07-27T00:45:30.705Z,58.10
2022-07-27T00:47:58.482Z,59.10
2022-07-27T00:50:26.848Z,59.40
2022-07-27T00:52:55.543Z,59.30
2022-07-27T00:55:25.993Z,58.90
2022-07-27T00:57:58.919Z,57.80
2022-07-27T01:00:27.634Z,57.70
2022-07-27T01:02:57.323Z,58.70
2022-07-27T01:05:35.840Z,59.70
2022-07-27T01:08:06.652Z,60.70
2022-07-27T01:10:36.542Z,61.00
2022-07-27T01:13:04.817Z,61.30
2022-07-27T01:15:36.704Z,60.50
2022-07-27T01:18:11.301Z,59.10
2022-07-27T01:20:40.884Z,58.70
2022-07-27T01:23:10.842Z,59.30
2022-07-27T01:25:41.150Z,60.60
2022-07-27T01:28:08.986Z,61.30
2022-07-27T01:30:36.799Z,60.10
2022-07-27T01:33:05.913Z,59.80
2022-07-27T01:35:34.300Z,61.80
2022-07-27T01:38:02.284Z,60.70
2022-07-27T01:40:31.813Z,58.90
2022-07-27T01:42:59.657Z,57.20
2022-07-27T01:45:27.521Z,59.00
2022-07-27T01:47:55.387Z,59.00
2022-07-27T01:50:23.258Z,60.90
2022-07-27T01:52:51.160Z,60.50
2022-07-27T01:55:18.997Z,60.20
2022-07-27T01:57:48.168Z,60.30
2022-07-27T02:00:16.334Z,60.70
2022-07-27T02:02:44.320Z,60.10
2022-07-27T02:05:12.437Z,60.60
2022-07-27T02:07:40.888Z,61.80
2022-07-27T02:10:09.943Z,63.20
2022-07-27T02:12:37.405Z,63.50
2022-07-27T02:15:13.429Z,58.60
2022-07-27T02:17:44.853Z,61.20
2022-07-27T02:20:14.233Z,56.80
2022-07-27T02:22:42.409Z,58.20
2022-07-27T02:25:11.775Z,59.10
2022-07-27T02:27:40.734Z,61.20
2022-07-27T02:30:12.992Z,61.40
2022-07-27T02:32:44.405Z,60.70
2022-07-27T02:35:19.209Z,61.00
2022-07-27T02:37:48.399Z,61.50
2022-07-27T02:40:17.996Z,62.60
2022-07-27T02:42:46.634Z,63.00
2022-07-27T02:45:15.926Z,63.30
2022-07-27T02:47:44.651Z,64.90
2022-07-27T02:50:12.826Z,64.30
2022-07-27T02:52:41.104Z,64.50
2022-07-27T02:55:10.367Z,64.70
2022-07-27T02:57:41.191Z,65.80
2022-07-27T03:00:12.420Z,65.50
2022-07-27T03:02:41.886Z,66.00
2022-07-27T03:05:11.496Z,66.90
2022-07-27T03:07:39.642Z,67.10
2022-07-27T03:10:08.838Z,68.00
2022-07-27T03:12:36.655Z,65.70
2022-07-27T03:15:05.057Z,64.90
2022-07-27T03:17:33.345Z,65.20
2022-07-27T03:20:02.573Z,63.10
2022-07-27T03:22:32.547Z,66.00
2022-07-27T03:25:01.281Z,65.60
2022-07-27T03:27:29.811Z,65.90
2022-07-27T03:29:58.075Z,66.80
2022-07-27T03:32:26.026Z,67.10
2022-07-27T03:34:53.949Z,67.80
2022-07-27T03:37:23.172Z,68.30
2022-07-27T03:39:51.112Z,69.40
2022-07-27T03:42:19.060Z,66.50
2022-07-27T03:44:46.965Z,64.10
2022-07-27T03:47:14.732Z,63.00
2022-07-27T03:49:42.524Z,64.40
2022-07-27T03:52:15.678Z,66.90
2022-07-27T03:54:47.576Z,68.20
2022-07-27T03:57:16.005Z,69.20
2022-07-27T03:59:44.254Z,69.50
2022-07-27T04:02:12.151Z,69.40
2022-07-27T04:04:40.048Z,62.30
2022-07-27T04:07:07.970Z,58.10
2022-07-27T04:09:37.576Z,56.80
2022-07-27T04:12:09.157Z,59.70
2022-07-27T04:14:37.048Z,60.10
2022-07-27T04:17:05.121Z,63.20
2022-07-27T04:19:33.141Z,66.90
2022-07-27T04:22:00.916Z,62.60
2022-07-27T04:24:28.758Z,64.30
2022-07-27T04:26:56.589Z,65.70
2022-07-27T04:29:25.808Z,68.90
2022-07-27T04:31:53.612Z,66.40
2022-07-27T04:34:21.641Z,62.80
2022-07-27T04:36:50.010Z,64.50
2022-07-27T04:39:17.913Z,61.80
2022-07-27T04:41:45.811Z,59.60
2022-07-27T04:44:13.650Z,59.80
2022-07-27T04:46:42.813Z,59.10
2022-07-27T04:49:10.977Z,59.70
2022-07-27T04:51:39.073Z,56.20
2022-07-27T04:54:06.938Z,55.40
2022-07-27T04:56:34.746Z,55.50
2022-07-27T04:59:02.655Z,60.20
2022-07-27T05:01:34.963Z,58.30
2022-07-27T05:04:05.226Z,60.00
2022-07-27T05:06:33.288Z,60.90
2022-07-27T05:09:01.182Z,61.10
2022-07-27T05:11:29.020Z,59.80
2022-07-27T05:13:57.073Z,58.60
2022-07-27T05:16:28.518Z,57.20
2022-07-27T05:18:57.445Z,57.90
2022-07-27T05:21:27.367Z,56.50
2022-07-27T05:23:55.631Z,57.80
2022-07-27T05:26:23.463Z,59.70
2022-07-27T05:28:51.410Z,60.90
2022-07-27T05:31:19.621Z,61.60
2022-07-27T05:33:49.814Z,62.00
2022-07-27T05:36:19.134Z,63.20
2022-07-27T05:38:48.357Z,64.50
2022-07-27T05:41:16.394Z,64.10
2022-07-27T05:43:44.579Z,64.00
2022-07-27T05:46:12.611Z,64.30
2022-07-27T05:48:40.592Z,64.40
2022-07-27T05:51:09.363Z,64.20
2022-07-27T05:53:37.204Z,63.20
2022-07-27T05:56:07.909Z,62.50
2022-07-27T05:58:35.821Z,60.10
2022-07-27T06:01:03.892Z,61.00
2022-07-27T06:03:32.035Z,59.80
2022-07-27T06:06:14.226Z,59.50
2022-07-27T06:08:42.066Z,58.10
2022-07-27T06:11:11.281Z,56.80
2022-07-27T06:13:42.424Z,57.20
2022-07-27T06:16:11.158Z,57.20
2022-07-27T06:18:39.098Z,57.20
2022-07-27T06:21:06.985Z,57.00
2022-07-27T06:23:35.003Z,56.70
2022-07-27T06:26:02.830Z,55.70
2022-07-27T06:28:32.176Z,54.70
2022-07-27T06:31:00.321Z,55.10
2022-07-27T06:33:29.460Z,55.30
2022-07-27T06:35:58.607Z,55.50
2022-07-27T06:38:27.113Z,55.60
2022-07-27T06:40:55.573Z,54.90
2022-07-27T06:43:24.912Z,54.90
2022-07-27T06:45:54.574Z,56.60
2022-07-27T06:48:23.045Z,55.20
2022-07-27T06:50:52.208Z,54.80
2022-07-27T06:53:21.313Z,55.30
2022-07-27T06:55:49.459Z,56.60
2022-07-27T06:58:17.845Z,55.60
2022-07-27T07:00:45.885Z,54.80
2022-07-27T07:03:15.050Z,54.20
2022-07-27T07:05:44.768Z,54.90
2022-07-27T07:08:13.549Z,54.40
2022-07-27T07:10:42.035Z,54.90
2022-07-27T07:13:10.459Z,55.30
2022-07-27T07:15:39.986Z,54.00
2022-07-27T07:18:08.828Z,54.30
2022-07-27T07:20:38.785Z,54.50
2022-07-27T07:23:07.261Z,54.50
2022-07-27T07:25:35.846Z,55.40
2022-07-27T07:28:03.641Z,56.50
2022-07-27T07:30:31.986Z,56.00
2022-07-27T07:33:00.117Z,55.30
2022-07-27T07:35:28.113Z,54.80
2022-07-27T07:37:57.266Z,54.90
2022-07-27T07:40:42.835Z,54.40
2022-07-27T07:43:13.083Z,55.40
2022-07-27T07:45:50.689Z,55.70
2022-07-27T07:48:20.880Z,54.70
2022-07-27T07:50:51.923Z,54.20
2022-07-27T07:53:22.756Z,54.30
2022-07-27T07:55:51.255Z,53.60
2022-07-27T07:58:19.453Z,53.80
2022-07-27T08:00:47.573Z,53.40
2022-07-27T08:03:15.994Z,52.40
2022-07-27T08:05:43.952Z,53.10
2022-07-27T08:08:12.100Z,54.10
2022-07-27T08:10:41.259Z,54.00
2022-07-27T08:13:09.632Z,53.60
2022-07-27T08:15:37.463Z,50.40
2022-07-27T08:18:06.271Z,49.60
2022-07-27T08:20:34.450Z,51.20
2022-07-27T08:23:02.568Z,52.60
2022-07-27T08:25:30.594Z,53.50
2022-07-27T08:28:00.290Z,53.70
2022-07-27T08:30:33.076Z,53.70
2022-07-27T08:33:03.834Z,51.80
2022-07-27T08:35:33.459Z,49.90
2022-07-27T08:38:01.922Z,48.40
2022-07-27T08:40:40.306Z,47.50
2022-07-27T08:43:11.424Z,47.40
2022-07-27T08:45:41.398Z,47.90
2022-07-27T08:48:13.710Z,48.80
2022-07-27T08:50:42.749Z,49.50
2022-07-27T08:53:13.443Z,49.80
2022-07-27T08:55:43.265Z,48.70
2022-07-27T08:58:13.668Z,46.20
2022-07-27T09:00:46.217Z,47.90
2022-07-27T09:03:19.515Z,47.60
2022-07-27T09:05:50.054Z,47.40
2022-07-27T09:08:22.077Z,47.90
2022-07-27T09:10:49.941Z,47.90
2022-07-27T09:13:21.695Z,47.70
2022-07-27T09:18:40.533Z,46.30
2022-07-27T09:21:10.294Z,46.00
2022-07-27T09:23:38.782Z,46.80
2022-07-27T09:26:30.512Z,46.80
2022-07-27T09:29:03.547Z,47.20
2022-07-27T09:31:31.626Z,47.10
2022-07-27T09:34:01.856Z,46.80
2022-07-27T09:36:31.051Z,46.00
2022-07-27T09:39:03.333Z,46.00
2022-07-27T09:41:42.410Z,45.10
2022-07-27T09:44:31.161Z,45.60
2022-07-27T09:47:00.492Z,45.30
2022-07-27T09:49:30.469Z,45.40
2022-07-27T09:52:01.761Z,44.80
2022-07-27T09:54:43.451Z,45.10
2022-07-27T09:57:11.822Z,44.70
2022-07-27T09:59:40.991Z,44.50
2022-07-27T10:02:09.406Z,44.80
2022-07-27T10:04:37.401Z,44.80
2022-07-27T10:07:08.357Z,42.10
2022-07-27T10:09:38.723Z,41.30
2022-07-27T10:12:07.213Z,40.90
2022-07-27T10:14:35.170Z,42.20
2022-07-27T10:17:04.972Z,42.60
2022-07-27T10:19:37.914Z,41.50
2022-07-27T10:22:05.791Z,41.20
2022-07-27T10:24:37.113Z,42.20
2022-07-27T10:27:20.625Z,44.40
2022-07-27T10:29:49.368Z,44.80
2022-07-27T10:32:26.463Z,44.70
2022-07-27T10:34:54.746Z,43.50
2022-07-27T10:37:26.779Z,42.80
2022-07-27T10:40:16.907Z,44.10
2022-07-27T10:42:49.016Z,43.60
2022-07-27T10:45:21.459Z,43.40
2022-07-27T10:47:52.307Z,43.90
2022-07-27T10:50:31.729Z,44.40
2022-07-27T10:53:03.184Z,45.00
2022-07-27T10:55:45.006Z,45.30
2022-07-27T10:58:44.567Z,44.90
2022-07-27T11:01:14.748Z,44.50
2022-07-27T11:03:52.609Z,43.30
2022-07-27T11:06:34.009Z,43.60
2022-07-27T11:11:55.743Z,42.70
2022-07-27T11:14:31.270Z,42.20
2022-07-27T11:17:39.802Z,43.40
2022-07-27T11:19:54.745Z,43.60
2022-07-27T11:25:21.474Z,43.40
2022-07-27T11:27:50.460Z,43.00
2022-07-27T11:30:27.156Z,42.50
2022-07-27T11:32:55.840Z,42.00
2022-07-27T11:35:25.113Z,41.60
2022-07-27T11:38:00.318Z,42.40
2022-07-27T11:40:56.110Z,41.50
2022-07-27T11:43:36.965Z,42.30
2022-07-27T11:46:16.968Z,41.30
2022-07-27T11:49:07.153Z,40.90
2022-07-27T11:51:39.932Z,41.30
2022-07-27T11:54:09.931Z,40.30
2022-07-27T11:56:39.732Z,41.00
2022-07-27T11:59:13.304Z,41.60
2022-07-27T12:01:44.083Z,41.10
2022-07-27T12:04:30.226Z,41.80
2022-07-27T12:07:03.024Z,40.20
2022-07-27T12:09:36.815Z,43.10
2022-07-27T12:12:11.735Z,43.90
2022-07-27T12:14:41.428Z,44.40
2022-07-27T12:17:38.454Z,44.70
2022-07-27T12:20:09.059Z,45.70
2022-07-27T12:22:40.583Z,46.10
2022-07-27T12:25:15.921Z,46.20
2022-07-27T12:27:55.280Z,45.80
2022-07-27T12:30:31.139Z,45.60
2022-07-27T12:32:59.226Z,45.30
2022-07-27T12:35:34.298Z,44.40
2022-07-27T12:38:08.466Z,44.40
2022-07-27T12:40:44.877Z,43.20
2022-07-27T12:43:17.312Z,42.10
2022-07-27T12:45:45.772Z,43.50
2022-07-27T12:48:16.516Z,45.00
2022-07-27T12:50:45.875Z,44.50
2022-07-27T12:53:17.439Z,44.60
2022-07-27T12:55:45.773Z,44.30
2022-07-27T12:58:14.891Z,45.10
2022-07-27T13:00:42.930Z,45.30
2022-07-27T13:03:11.023Z,45.50
2022-07-27T13:05:38.852Z,45.20
2022-07-27T13:08:07.782Z,44.80
2022-07-27T13:10:37.601Z,45.00
2022-07-27T13:13:06.150Z,44.60
2022-07-27T13:15:34.373Z,45.10
2022-07-27T13:18:02.214Z,44.90
2022-07-27T13:20:30.349Z,43.90
2022-07-27T13:22:58.152Z,43.80
2022-07-27T13:25:26.036Z,43.50
2022-07-27T13:27:55.297Z,43.40
2022-07-27T13:30:24.591Z,43.60
2022-07-27T13:32:52.482Z,43.70
2022-07-27T13:35:20.423Z,43.10
2022-07-27T13:37:48.426Z,43.40
2022-07-27T13:40:16.317Z,43.30
2022-07-27T13:42:44.218Z,42.80
2022-07-27T13:45:14.076Z,42.20
2022-07-27T13:47:42.671Z,42.30
2022-07-27T13:50:18.383Z,42.70
2022-07-27T13:52:47.325Z,41.60
2022-07-27T13:55:15.951Z,41.70
2022-07-27T13:57:43.893Z,41.10
2022-07-27T14:00:14.614Z,41.10
2022-07-27T14:02:42.884Z,41.10
2022-07-27T14:05:12.885Z,40.30
2022-07-27T14:07:42.098Z,39.80
2022-07-27T14:10:28.842Z,39.40
2022-07-27T14:12:59.327Z,39.40
2022-07-27T14:15:29.309Z,39.30
2022-07-27T14:17:57.300Z,39.80
2022-07-27T14:20:25.241Z,39.40
2022-07-27T14:22:53.069Z,40.10
2022-07-27T14:25:20.937Z,39.90
2022-07-27T14:27:48.727Z,39.90
2022-07-27T14:30:20.711Z,40.30
2022-07-27T14:32:50.405Z,40.60
2022-07-27T14:35:18.522Z,39.70
2022-07-27T14:37:46.729Z,40.40
2022-07-27T14:40:15.664Z,41.30
2022-07-27T14:42:43.558Z,41.90
2022-07-27T14:45:12.191Z,41.50
2022-07-27T14:47:40.032Z,42.30
2022-07-27T14:50:09.826Z,42.50
2022-07-27T14:52:37.731Z,42.10
2022-07-27T14:55:06.331Z,42.50
2022-07-27T14:57:34.225Z,42.20
2022-07-27T15:00:06.897Z,42.10
2022-07-27T15:02:35.130Z,42.30
2022-07-27T15:05:03.056Z,43.00
2022-07-27T15:07:32.342Z,42.70
2022-07-27T15:10:00.212Z,42.80
2022-07-27T15:12:28.504Z,43.30
2022-07-27T15:14:57.137Z,42.10
2022-07-27T15:17:25.351Z,42.50
2022-07-27T15:19:53.193Z,42.10
2022-07-27T15:22:21.155Z,42.50
2022-07-27T15:24:53.995Z,41.90
2022-07-27T15:27:22.714Z,42.30
2022-07-27T15:29:50.606Z,42.60
2022-07-27T15:32:18.453Z,42.20
2022-07-27T15:34:47.181Z,42.60
2022-07-27T15:37:14.993Z,43.60
2022-07-27T15:39:42.808Z,44.30
2022-07-27T15:42:12.060Z,44.40
2022-07-27T15:44:41.339Z,44.50
2022-07-27T15:47:09.358Z,43.90
2022-07-27T15:49:37.355Z,43.80
2022-07-27T15:52:05.680Z,43.60
2022-07-27T15:54:38.194Z,43.30
2022-07-27T15:57:11.465Z,43.60
2022-07-27T15:59:39.258Z,42.90
2022-07-27T16:02:07.096Z,42.90
2022-07-27T16:04:35.287Z,43.00
2022-07-27T16:07:03.065Z,42.70
2022-07-27T16:09:31.032Z,41.90
2022-07-27T16:11:58.920Z,42.10
2022-07-27T16:14:28.049Z,42.30
2022-07-27T16:16:55.864Z,42.60
2022-07-27T16:19:23.634Z,43.30
2022-07-27T16:21:54.968Z,42.80
2022-07-27T16:24:24.704Z,43.30
2022-07-27T16:26:52.917Z,43.50
2022-07-27T16:29:20.723Z,43.80
2022-07-27T16:31:51.226Z,44.10
2022-07-27T16:34:19.235Z,44.40
2022-07-27T16:36:48.998Z,44.50
2022-07-27T16:39:17.009Z,44.60
2022-07-27T16:41:47.155Z,44.70
2022-07-27T16:44:15.213Z,44.70
2022-07-27T16:46:43.505Z,44.80
2022-07-27T16:49:13.786Z,45.50
2022-07-27T16:51:42.283Z,44.90
2022-07-27T16:54:10.160Z,45.10
2022-07-27T16:56:38.722Z,45.10
2022-07-27T16:59:06.519Z,45.20
2022-07-27T17:01:34.706Z,44.80
2022-07-27T17:04:02.637Z,45.20
2022-07-27T17:06:31.927Z,45.40
2022-07-27T17:08:59.750Z,45.80
2022-07-27T17:11:27.564Z,45.50
2022-07-27T17:13:58.993Z,45.60
2022-07-27T17:16:27.373Z,45.60
2022-07-27T17:18:55.403Z,45.80
2022-07-27T17:21:23.211Z,45.80
2022-07-27T17:23:52.513Z,45.70
2022-07-27T17:26:20.361Z,45.70
2022-07-27T17:28:52.210Z,45.60
2022-07-27T17:31:21.125Z,45.60
2022-07-27T17:33:49.394Z,45.70
2022-07-27T17:36:17.547Z,45.30
2022-07-27T17:38:46.536Z,45.50
2022-07-27T17:41:21.907Z,45.50
2022-07-27T17:43:52.684Z,45.80
2022-07-27T17:46:20.765Z,45.50
2022-07-27T17:48:48.807Z,45.00
2022-07-27T17:51:17.126Z,45.20
2022-07-27T17:53:44.968Z,45.20
2022-07-27T17:56:13.265Z,45.20
2022-07-27T17:58:46.717Z,44.90
2022-07-27T18:01:14.599Z,44.60
2022-07-27T18:03:42.708Z,44.60
2022-07-27T18:06:10.520Z,44.60
2022-07-27T18:08:38.775Z,44.30
2022-07-27T18:11:07.130Z,44.00
2022-07-27T18:13:37.833Z,44.40
2022-07-27T18:16:11.603Z,44.40
2022-07-27T18:18:40.218Z,44.60
2022-07-27T18:21:08.641Z,45.00
2022-07-27T18:23:36.820Z,44.80
2022-07-27T18:26:05.164Z,45.00
2022-07-27T18:28:39.189Z,45.40
2022-07-27T18:31:12.184Z,46.00
2022-07-27T18:33:45.634Z,46.80
2022-07-27T18:36:13.870Z,47.10
2022-07-27T18:38:41.853Z,47.40
2022-07-27T18:41:09.941Z,47.80
2022-07-27T18:43:38.097Z,48.10
2022-07-27T18:46:06.492Z,48.50
2022-07-27T18:48:35.671Z,48.80
2022-07-27T18:51:03.552Z,49.10
2022-07-27T18:53:31.344Z,49.30
2022-07-27T18:55:59.202Z,49.50
2022-07-27T18:58:27.610Z,49.70
2022-07-27T19:00:55.585Z,50.10
2022-07-27T19:03:24.761Z,50.10
2022-07-27T19:05:57.370Z,50.40
2022-07-27T19:08:25.658Z,50.30
2022-07-27T19:10:53.858Z,50.30
2022-07-27T19:13:22.065Z,50.30
2022-07-27T19:15:51.255Z,50.50
2022-07-27T19:18:23.979Z,50.80
2022-07-27T19:20:51.954Z,51.00
2022-07-27T19:23:21.153Z,51.30
2022-07-27T19:25:52.654Z,51.30
2022-07-27T19:28:22.090Z,51.70
2022-07-27T19:30:50.017Z,51.90
2022-07-27T19:33:18.768Z,52.00
2022-07-27T19:35:46.635Z,52.20
2022-07-27T19:38:14.482Z,52.50
2022-07-27T19:40:45.607Z,52.70
2022-07-27T19:43:15.284Z,52.70
2022-07-27T19:45:43.506Z,53.10
2022-07-27T19:48:11.875Z,53.10
2022-07-27T19:50:39.991Z,53.00
2022-07-27T19:53:07.948Z,53.40
2022-07-27T19:55:35.913Z,53.20
2022-07-27T19:58:05.129Z,53.60
2022-07-27T20:00:33.044Z,53.60
2022-07-27T20:03:00.918Z,53.90
2022-07-27T20:05:28.919Z,53.90
2022-07-27T20:07:56.724Z,54.10
2022-07-27T20:10:25.386Z,54.40
2022-07-27T20:12:53.277Z,54.80
2022-07-27T20:15:22.763Z,54.70
2022-07-27T20:17:50.876Z,54.90
2022-07-27T20:20:18.991Z,55.10
2022-07-27T20:22:46.874Z,55.30
2022-07-27T20:25:15.481Z,55.30
2022-07-27T20:27:43.908Z,55.60
2022-07-27T20:30:14.507Z,55.60
2022-07-27T20:32:43.882Z,55.90
2022-07-27T20:35:11.679Z,55.80
2022-07-27T20:37:39.515Z,56.10
2022-07-27T20:40:11.222Z,56.30
2022-07-27T20:42:40.367Z,56.80
2022-07-27T20:45:14.797Z,57.10
2022-07-27T20:47:44.358Z,57.70
2022-07-27T20:50:13.580Z,58.30
2022-07-27T20:52:42.219Z,58.70
2022-07-27T20:55:11.481Z,59.10
2022-07-27T20:57:39.419Z,59.30
2022-07-27T21:00:08.711Z,59.20
2022-07-27T21:02:36.761Z,59.40
2022-07-27T21:05:07.232Z,59.50
2022-07-27T21:07:35.246Z,59.10
2022-07-27T21:10:03.110Z,59.20
2022-07-27T21:12:30.919Z,59.50
2022-07-27T21:14:58.777Z,59.50
2022-07-27T21:17:27.052Z,58.90
2022-07-27T21:19:54.829Z,59.20
2022-07-27T21:22:23.997Z,59.10
2022-07-27T21:24:51.317Z,58.70
2022-07-27T21:27:21.052Z,58.60
2022-07-27T21:29:49.490Z,58.90
2022-07-27T21:32:17.504Z,58.60
2022-07-27T21:34:45.504Z,58.20
2022-07-27T21:37:13.416Z,58.20
2022-07-27T21:39:42.772Z,58.60
2022-07-27T21:42:19.986Z,58.50
2022-07-27T21:44:47.863Z,58.50
2022-07-27T21:47:15.685Z,58.70
2022-07-27T21:49:44.311Z,58.50
2022-07-27T21:52:12.273Z,58.60
2022-07-27T21:54:40.411Z,59.20
2022-07-27T21:57:09.536Z,59.50
2022-07-27T21:59:37.399Z,59.60
2022-07-27T22:02:05.411Z,60.00
2022-07-27T22:04:33.576Z,60.00
2022-07-27T22:07:01.623Z,60.30
2022-07-27T22:09:30.147Z,60.50
2022-07-27T22:11:57.991Z,59.00
2022-07-27T22:14:27.385Z,59.20
2022-07-27T22:16:55.317Z,58.70
2022-07-27T22:19:23.532Z,58.90
2022-07-27T22:21:51.358Z,58.60
2022-07-27T22:24:19.143Z,58.50
2022-07-27T22:26:46.974Z,58.70
2022-07-27T22:29:14.765Z,58.60
2022-07-27T22:31:43.931Z,58.90
2022-07-27T22:34:12.064Z,58.90
2022-07-27T22:36:40.133Z,58.80
2022-07-27T22:39:07.905Z,59.20
2022-07-27T22:41:35.717Z,59.50
2022-07-27T22:44:03.515Z,59.70
2022-07-27T22:46:31.339Z,59.90
2022-07-27T22:49:00.574Z,60.20
2022-07-27T22:51:50.150Z,60.40
2022-07-27T22:54:16.765Z,60.90
2022-07-27T22:56:45.238Z,61.00
2022-07-27T22:59:13.025Z,61.00
2022-07-27T23:01:46.267Z,61.30
2022-07-27T23:04:18.082Z,60.80
2022-07-27T23:06:46.467Z,62.10
2022-07-27T23:09:14.405Z,61.00
2022-07-27T23:11:42.311Z,61.90
2022-07-27T23:14:10.348Z,63.10
2022-07-27T23:16:38.816Z,62.40
2022-07-27T23:19:06.648Z,63.70
2022-07-27T23:21:37.443Z,60.90
2022-07-27T23:24:05.719Z,64.10
2022-07-27T23:26:33.622Z,61.50
2022-07-27T23:29:01.751Z,61.30
2022-07-27T23:31:29.628Z,61.80
2022-07-27T23:33:57.475Z,62.00
2022-07-27T23:36:25.296Z,62.10
2022-07-27T23:38:54.616Z,62.00
2022-07-27T23:41:22.454Z,61.90
2022-07-27T23:43:50.253Z,61.70
2022-07-27T23:46:18.106Z,63.10
2022-07-27T23:48:46.090Z,61.60
2022-07-27T23:51:17.691Z,61.80
2022-07-27T23:53:45.553Z,62.50
2022-07-27T23:56:14.727Z,62.10
2022-07-27T23:58:43.408Z,62.70
